Time;durP1;ratioP1;P1;durP2;ratioP2;P2;SDS_P1;SDS_P2;PMS_P1;PMS_P2;Temp;Humidity;BMP_temperature;BMP_pressure;BME280_temperature;BME280_humidity;BME280_pressure;Samples;Min_cycle;Max_cycle;Signal;HPM_P1;HPM_P2
2022/06/05 00:00:09;;;;;;;14.77;12.98;;;19.70;99.90;;;;;;5019405;28;20033;-60
2022/06/05 00:02:38;;;;;;;14.27;12.82;;;19.70;99.90;;;;;;5019278;28;20042;-60
2022/06/05 00:05:25;;;;;;;14.35;13.05;;;19.70;99.90;;;;;;5019372;28;20070;-60
2022/06/05 00:08:15;;;;;;;14.18;12.77;;;19.60;99.90;;;;;;5019336;28;20037;-60
2022/06/05 00:10:44;;;;;;;15.68;14.27;;;19.60;99.90;;;;;;5018510;28;20453;-60
2022/06/05 00:13:31;;;;;;;16.65;14.43;;;19.60;99.90;;;;;;5019064;28;20305;-60
2022/06/05 00:15:57;;;;;;;16.67;14.68;;;19.60;99.90;;;;;;5019175;28;20121;-60
2022/06/05 00:18:23;;;;;;;16.90;15.15;;;19.70;99.90;;;;;;5018991;28;20151;-60
2022/06/05 00:20:49;;;;;;;15.60;14.10;;;19.70;99.90;;;;;;5018256;28;20417;-60
2022/06/05 00:23:15;;;;;;;15.40;13.80;;;19.60;99.90;;;;;;5019314;28;20080;-60
2022/06/05 00:25:51;;;;;;;15.43;13.93;;;19.50;99.90;;;;;;5019006;28;20029;-60
2022/06/05 00:28:29;;;;;;;15.82;13.88;;;19.30;99.90;;;;;;5019447;28;20049;-60
2022/06/05 00:31:23;;;;;;;14.73;13.25;;;19.40;99.90;;;;;;5018917;28;20034;-60
2022/06/05 00:33:49;;;;;;;15.07;13.65;;;19.30;99.90;;;;;;5018761;28;20129;-61
2022/06/05 00:36:43;;;;;;;15.80;14.35;;;19.30;99.90;;;;;;5018778;28;20449;-60
2022/06/05 00:39:18;;;;;;;14.88;13.38;;;19.30;99.90;;;;;;5018738;28;20107;-60
2022/06/05 00:41:58;;;;;;;15.98;14.40;;;19.20;99.90;;;;;;5018798;28;20022;-61
2022/06/05 00:45:00;;;;;;;15.98;14.25;;;19.20;99.90;;;;;;5018554;28;20290;-60
2022/06/05 00:47:31;;;;;;;16.10;14.52;;;19.20;99.90;;;;;;5015517;28;20057;-61
2022/06/05 00:50:07;;;;;;;16.50;14.05;;;19.20;99.90;;;;;;5018472;28;20038;-61
2022/06/05 00:52:36;;;;;;;17.20;15.55;;;19.30;99.90;;;;;;5018654;28;20038;-60
2022/06/05 00:55:03;;;;;;;18.95;14.93;;;19.40;99.90;;;;;;5018323;28;20108;-61
2022/06/05 00:57:31;;;;;;;16.25;14.60;;;19.30;99.90;;;;;;5017966;28;20159;-61
2022/06/05 01:00:04;;;;;;;16.20;14.55;;;19.20;99.90;;;;;;5018320;28;20030;-60
2022/06/05 01:02:30;;;;;;;15.98;14.57;;;19.10;99.90;;;;;;5018182;28;20076;-61
2022/06/05 01:04:56;;;;;;;14.82;13.52;;;19.10;99.90;;;;;;5018580;28;20309;-60
2022/06/05 01:07:22;;;;;;;15.07;13.48;;;19.00;99.90;;;;;;5018427;28;20401;-61
2022/06/05 01:09:49;;;;;;;15.38;13.95;;;18.90;99.90;;;;;;5018138;28;20095;-61
2022/06/05 01:12:34;;;;;;;16.48;14.15;;;19.00;99.90;;;;;;5018100;28;20355;-60
2022/06/05 01:15:09;;;;;;;15.43;13.48;;;19.00;99.90;;;;;;5018123;28;20037;-60
2022/06/05 01:17:45;;;;;;;14.55;13.15;;;19.10;99.90;;;;;;5018069;28;20030;-60
2022/06/05 01:20:34;;;;;;;18.02;14.02;;;19.00;99.90;;;;;;5017966;28;20132;-60
2022/06/05 01:23:33;;;;;;;15.20;13.65;;;19.00;99.90;;;;;;5017968;28;20046;-60
2022/06/05 01:26:14;;;;;;;14.75;13.25;;;19.10;99.90;;;;;;5017886;28;20116;-60
2022/06/05 01:28:52;;;;;;;16.98;14.73;;;19.00;99.90;;;;;;5017900;28;20025;-60
2022/06/05 01:31:27;;;;;;;15.10;13.77;;;19.10;99.90;;;;;;5017749;28;20030;-59
2022/06/05 01:34:05;;;;;;;15.95;14.35;;;19.10;99.90;;;;;;5018093;28;20034;-59
2022/06/05 01:36:42;;;;;;;14.70;13.35;;;19.10;99.90;;;;;;5018094;28;20040;-60
2022/06/05 01:39:14;;;;;;;14.88;13.40;;;19.00;99.90;;;;;;5018809;28;20395;-60
2022/06/05 01:41:47;;;;;;;15.73;14.23;;;18.90;99.90;;;;;;5017601;28;20025;-61
2022/06/05 01:44:18;;;;;;;14.63;13.07;;;18.80;99.90;;;;;;5017623;28;20030;-60
2022/06/05 01:46:44;;;;;;;13.98;12.52;;;18.80;99.90;;;;;;5017630;28;20048;-60
2022/06/05 01:49:32;;;;;;;14.75;13.35;;;18.80;99.90;;;;;;5017951;28;20294;-60
2022/06/05 01:52:06;;;;;;;14.90;13.45;;;18.90;99.90;;;;;;5017539;28;20038;-59
2022/06/05 01:55:06;;;;;;;13.38;12.18;;;18.70;99.90;;;;;;5017419;28;20057;-60
2022/06/05 01:57:33;;;;;;;13.70;12.40;;;18.70;99.90;;;;;;5017540;28;20030;-59
2022/06/05 02:00:11;;;;;;;14.10;12.70;;;18.80;99.90;;;;;;5017387;28;20061;-60
2022/06/05 02:02:45;;;;;;;15.07;13.40;;;18.80;99.90;;;;;;5017147;28;20042;-60
2022/06/05 02:05:17;;;;;;;13.60;12.50;;;18.80;99.90;;;;;;5016922;28;20108;-60
2022/06/05 02:07:49;;;;;;;14.75;13.35;;;18.80;99.90;;;;;;5017212;28;20121;-60
2022/06/05 02:10:26;;;;;;;15.68;14.07;;;18.80;99.90;;;;;;5017174;28;20046;-59
2022/06/05 02:12:54;;;;;;;16.23;13.95;;;18.70;99.90;;;;;;5017202;28;20040;-59
2022/06/05 02:15:21;;;;;;;15.13;13.63;;;18.90;99.90;;;;;;5017960;28;20378;-60
2022/06/05 02:17:48;;;;;;;15.15;13.65;;;18.80;99.90;;;;;;5017117;28;20057;-60
2022/06/05 02:20:14;;;;;;;15.27;13.82;;;18.60;99.90;;;;;;5016421;28;20053;-60
2022/06/05 02:22:45;;;;;;;15.70;14.02;;;18.60;99.90;;;;;;5017089;28;20034;-60
2022/06/05 02:25:12;;;;;;;15.75;14.23;;;18.60;99.90;;;;;;5017376;28;20306;-60
2022/06/05 02:27:38;;;;;;;16.88;13.90;;;18.70;99.90;;;;;;5017070;28;20061;-61
2022/06/05 02:30:06;;;;;;;15.50;14.10;;;18.60;99.90;;;;;;5016974;28;20430;-60
2022/06/05 02:32:31;;;;;;;16.52;14.82;;;18.50;99.90;;;;;;5017205;28;20045;-61
2022/06/05 02:35:28;;;;;;;16.33;14.65;;;18.50;99.90;;;;;;5016872;28;20033;-60
2022/06/05 02:38:21;;;;;;;19.27;17.20;;;18.40;99.90;;;;;;5017062;28;20030;-60
2022/06/05 02:40:53;;;;;;;;;;;18.20;99.90;;;;;;5016873;28;20038;-62
2022/06/05 02:43:36;;;;;;;26.45;23.48;;;18.10;99.90;;;;;;5019517;28;19945;-61
2022/06/05 02:46:09;;;;;;;;;;;18.10;99.90;;;;;;5021443;28;20038;-61
2022/06/05 02:48:41;;;;;;;32.85;29.45;;;18.00;99.90;;;;;;5020734;28;19925;-61
2022/06/05 02:51:20;;;;;;;31.95;28.95;;;18.00;99.90;;;;;;5020736;28;20037;-61
2022/06/05 02:53:46;;;;;;;32.17;28.70;;;18.00;99.90;;;;;;5020606;28;20105;-61
2022/06/05 02:56:11;;;;;;;31.27;28.27;;;18.10;99.90;;;;;;5020686;28;20114;-62
2022/06/05 02:58:37;;;;;;;28.67;25.70;;;18.00;99.90;;;;;;5020731;28;20034;-61
2022/06/05 03:03:48;;;;;;;29.27;26.27;;;18.00;99.90;;;;;;5020531;28;20049;-61
2022/06/05 03:06:15;;;;;;;28.40;25.63;;;18.00;99.90;;;;;;5020510;28;20037;-61
2022/06/05 03:08:41;;;;;;;29.30;26.17;;;18.10;99.90;;;;;;5020796;28;20095;-61
2022/06/05 03:11:06;;;;;;;26.10;23.45;;;18.20;99.90;;;;;;5020323;28;20026;-61
2022/06/05 03:13:32;;;;;;;25.77;23.10;;;18.00;99.90;;;;;;5020639;28;20029;-61
2022/06/05 03:15:58;;;;;;;24.75;22.25;;;17.80;99.90;;;;;;5019631;28;20064;-61
2022/06/05 03:18:24;;;;;;;24.63;22.17;;;17.80;99.90;;;;;;5020371;28;20038;-61
2022/06/05 03:20:54;;;;;;;22.10;19.98;;;17.80;99.90;;;;;;5020482;28;20077;-61
2022/06/05 03:23:20;;;;;;;22.05;19.75;;;18.10;99.90;;;;;;5020196;28;20053;-62
2022/06/05 03:25:45;;;;;;;22.60;20.35;;;18.00;99.90;;;;;;5019312;28;20081;-61
2022/06/05 03:28:11;;;;;;;20.90;18.60;;;18.00;99.90;;;;;;5020180;28;20301;-61
2022/06/05 03:30:39;;;;;;;20.50;18.38;;;18.10;99.90;;;;;;5019967;28;20052;-61
2022/06/05 03:33:05;;;;;;;18.30;16.50;;;18.10;99.90;;;;;;5019890;28;20025;-62
2022/06/05 03:35:31;;;;;;;18.58;16.65;;;18.00;99.90;;;;;;5019141;28;20052;-62
2022/06/05 03:37:56;;;;;;;18.60;16.83;;;17.80;99.90;;;;;;5019888;28;20042;-62
2022/06/05 03:40:22;;;;;;;18.55;16.73;;;18.00;99.90;;;;;;5019763;28;20264;-62
2022/06/05 03:42:49;;;;;;;18.55;16.67;;;18.00;99.90;;;;;;5019686;28;20045;-62
2022/06/05 03:45:17;;;;;;;18.98;17.08;;;18.00;99.90;;;;;;5019039;28;20052;-62
2022/06/05 03:47:44;;;;;;;18.50;16.70;;;18.00;99.90;;;;;;5019731;28;20032;-62
2022/06/05 03:50:12;;;;;;;18.33;16.50;;;17.90;99.90;;;;;;5020086;28;20042;-62
2022/06/05 03:52:38;;;;;;;18.23;16.38;;;18.00;99.90;;;;;;5019625;28;20058;-62
2022/06/05 03:55:04;;;;;;;19.35;17.15;;;18.00;99.90;;;;;;5018157;28;20041;-62
2022/06/05 03:57:30;;;;;;;18.02;16.15;;;18.20;99.90;;;;;;5019575;28;20070;-62
2022/06/05 03:59:56;;;;;;;18.88;16.80;;;18.10;99.90;;;;;;5019461;28;20061;-64
2022/06/05 04:02:25;;;;;;;18.05;15.88;;;18.00;99.90;;;;;;5019227;28;20064;-62
2022/06/05 04:04:51;;;;;;;17.42;15.63;;;17.90;99.90;;;;;;5019368;28;20057;-62
2022/06/05 04:07:18;;;;;;;17.85;16.05;;;17.80;99.90;;;;;;5019169;28;20084;-62
2022/06/05 04:09:43;;;;;;;17.13;15.52;;;17.90;99.90;;;;;;5019163;28;20030;-63
2022/06/05 04:12:09;;;;;;;17.40;15.48;;;18.00;99.90;;;;;;5019145;28;20049;-62
2022/06/05 04:14:35;;;;;;;17.45;15.68;;;17.90;99.90;;;;;;5019371;28;20385;-63
2022/06/05 04:17:01;;;;;;;18.00;16.10;;;18.00;99.90;;;;;;5018329;28;20405;-62
2022/06/05 04:19:27;;;;;;;17.60;16.00;;;18.00;99.90;;;;;;5019631;28;20025;-63
2022/06/05 04:21:53;;;;;;;16.00;14.45;;;18.00;99.90;;;;;;5019075;28;20033;-63
2022/06/05 04:24:20;;;;;;;16.70;15.18;;;17.90;99.90;;;;;;5019003;28;20038;-62
2022/06/05 04:26:46;;;;;;;16.95;14.98;;;18.00;99.90;;;;;;5018922;28;20040;-63
2022/06/05 04:29:12;;;;;;;17.70;15.85;;;18.00;99.90;;;;;;5018892;28;20034;-63
2022/06/05 04:31:44;;;;;;;16.90;15.27;;;18.20;99.90;;;;;;5018902;28;20371;-63
2022/06/05 04:34:14;;;;;;;16.15;14.60;;;18.30;99.90;;;;;;5018159;28;20036;-63
2022/06/05 04:36:39;;;;;;;16.02;14.43;;;18.10;99.90;;;;;;5018063;28;20038;-63
2022/06/05 04:39:05;;;;;;;16.20;14.57;;;18.20;99.90;;;;;;5018785;28;20092;-63
2022/06/05 04:41:32;;;;;;;17.40;14.57;;;18.20;99.90;;;;;;5018412;28;20033;-62
2022/06/05 04:43:58;;;;;;;15.75;14.25;;;18.20;99.90;;;;;;5018575;28;20087;-62
2022/06/05 04:46:26;;;;;;;15.88;14.27;;;18.10;99.90;;;;;;5018949;28;20037;-62
2022/06/05 04:48:52;;;;;;;15.30;13.90;;;18.00;99.90;;;;;;5018447;28;20045;-62
2022/06/05 04:51:19;;;;;;;15.98;14.48;;;18.10;99.90;;;;;;5018473;28;20054;-62
2022/06/05 04:53:47;;;;;;;17.20;15.38;;;18.10;99.90;;;;;;5018321;28;20278;-62
2022/06/05 04:56:16;;;;;;;15.50;14.00;;;18.30;99.90;;;;;;5018367;28;20026;-62
2022/06/05 04:58:42;;;;;;;15.75;14.23;;;18.10;99.90;;;;;;5017571;28;20030;-62
2022/06/05 05:01:21;;;;;;;14.70;13.30;;;18.20;99.90;;;;;;5018173;28;20046;-62
2022/06/05 05:03:47;;;;;;;14.82;13.48;;;18.20;99.90;;;;;;5018223;28;20049;-62
2022/06/05 05:06:14;;;;;;;15.35;13.75;;;18.30;99.90;;;;;;5017742;28;20053;-62
2022/06/05 05:08:40;;;;;;;15.18;13.68;;;18.40;99.90;;;;;;5018285;28;20049;-62
2022/06/05 05:11:06;;;;;;;14.88;13.45;;;18.40;99.90;;;;;;5018608;28;20044;-62
2022/06/05 05:13:32;;;;;;;15.52;12.88;;;18.30;99.90;;;;;;5018131;28;20038;-61
2022/06/05 05:15:58;;;;;;;15.27;13.60;;;18.20;99.90;;;;;;5017092;28;20133;-62
2022/06/05 05:18:25;;;;;;;14.55;13.15;;;18.30;99.90;;;;;;5017392;28;20306;-62
2022/06/05 05:20:51;;;;;;;15.00;13.57;;;18.40;99.90;;;;;;5018060;28;20030;-62
2022/06/05 05:23:21;;;;;;;14.23;12.77;;;18.40;99.90;;;;;;5018011;28;20048;-62
2022/06/05 05:25:48;;;;;;;14.20;12.80;;;18.40;99.90;;;;;;5017912;28;20127;-63
2022/06/05 05:28:14;;;;;;;14.05;12.65;;;18.30;99.90;;;;;;5017873;28;20034;-64
2022/06/05 05:30:44;;;;;;;13.55;12.25;;;18.60;99.90;;;;;;5017081;28;20053;-61
2022/06/05 05:33:11;;;;;;;14.63;13.07;;;18.40;99.90;;;;;;5017702;28;20337;-61
2022/06/05 05:35:36;;;;;;;13.90;12.45;;;18.30;99.90;;;;;;5017799;28;20034;-62
2022/06/05 05:38:02;;;;;;;12.77;11.32;;;18.30;99.90;;;;;;5017453;28;20062;-61
2022/06/05 05:43:13;;;;;;;13.60;12.25;;;18.30;99.90;;;;;;5017683;28;20313;-62
2022/06/05 05:45:38;;;;;;;13.98;12.15;;;18.50;99.90;;;;;;5018206;28;20033;-62
2022/06/05 05:48:04;;;;;;;14.13;12.57;;;18.60;99.90;;;;;;5017534;28;20103;-62
2022/06/05 05:50:30;;;;;;;13.05;11.70;;;18.70;99.90;;;;;;5017515;28;20062;-62
2022/06/05 05:52:56;;;;;;;13.27;11.88;;;18.80;99.90;;;;;;5017337;28;20061;-62
2022/06/05 05:55:21;;;;;;;12.57;11.32;;;18.80;99.90;;;;;;5017404;28;20302;-62
2022/06/05 05:57:48;;;;;;;13.43;12.10;;;18.80;99.90;;;;;;5017332;28;20044;-62
2022/06/05 06:00:17;;;;;;;12.30;10.85;;;18.80;99.90;;;;;;5017341;28;20042;-62
2022/06/05 06:02:44;;;;;;;12.18;11.07;;;18.80;99.90;;;;;;5017348;28;20124;-62
2022/06/05 06:05:13;;;;;;;12.63;11.43;;;18.70;99.90;;;;;;5017348;28;20030;-62
2022/06/05 06:07:40;;;;;;;13.25;11.95;;;18.80;99.90;;;;;;5017453;28;20081;-61
2022/06/05 06:10:07;;;;;;;12.88;11.57;;;18.90;99.90;;;;;;5017329;28;20064;-61
2022/06/05 06:12:33;;;;;;;12.50;11.30;;;19.00;99.90;;;;;;5017205;28;20033;-62
2022/06/05 06:14:59;;;;;;;12.40;11.27;;;18.90;99.90;;;;;;5017645;28;20042;-61
2022/06/05 06:17:25;;;;;;;12.80;11.40;;;18.90;99.90;;;;;;5016576;28;20038;-61
2022/06/05 06:19:51;;;;;;;12.40;11.20;;;19.10;99.90;;;;;;5017182;28;20030;-61
2022/06/05 06:22:18;;;;;;;12.73;11.43;;;19.20;99.90;;;;;;5017007;28;20356;-62
2022/06/05 06:24:43;;;;;;;14.60;12.27;;;19.10;99.90;;;;;;5017218;28;20034;-62
2022/06/05 06:27:09;;;;;;;11.75;10.55;;;19.10;99.90;;;;;;5017026;28;20030;-61
2022/06/05 06:29:35;;;;;;;12.35;11.18;;;19.20;99.90;;;;;;5016304;28;20048;-62
2022/06/05 06:32:01;;;;;;;11.75;10.55;;;19.40;99.90;;;;;;5017262;28;20318;-61
2022/06/05 06:34:27;;;;;;;12.95;11.00;;;19.40;99.90;;;;;;5016181;28;20128;-61
2022/06/05 06:36:53;;;;;;;11.57;10.50;;;19.50;99.90;;;;;;5016920;28;20109;-62
2022/06/05 06:39:20;;;;;;;12.00;10.80;;;19.70;99.90;;;;;;5016922;28;20033;-62
2022/06/05 06:41:46;;;;;;;10.63;9.63;;;19.80;99.90;;;;;;5016217;28;20064;-60
2022/06/05 06:44:12;;;;;;;11.00;9.90;;;20.10;99.90;;;;;;5017160;28;20390;-60
2022/06/05 06:46:38;;;;;;;11.15;10.10;;;20.20;99.90;;;;;;5016754;28;20105;-60
2022/06/05 06:49:04;;;;;;;10.98;9.93;;;20.40;99.90;;;;;;5016635;28;20022;-61
2022/06/05 06:51:30;;;;;;;12.00;10.80;;;20.40;99.90;;;;;;5016704;28;20026;-61
2022/06/05 06:53:56;;;;;;;10.77;9.73;;;20.50;99.90;;;;;;5016136;28;20041;-61
2022/06/05 06:56:27;;;;;;;11.75;9.85;;;20.70;99.90;;;;;;5016822;28;20030;-62
2022/06/05 06:58:54;;;;;;;12.07;10.57;;;20.80;99.90;;;;;;5016689;28;20041;-60
2022/06/05 07:01:20;;;;;;;11.15;10.07;;;21.00;99.90;;;;;;5016220;28;20052;-62
2022/06/05 07:03:46;;;;;;;11.70;10.30;;;21.00;99.90;;;;;;5016715;28;20202;-62
2022/06/05 07:06:14;;;;;;;10.63;9.73;;;21.00;99.90;;;;;;5016588;28;20389;-61
2022/06/05 07:08:43;;;;;;;12.82;10.45;;;21.20;99.90;;;;;;5016960;28;20410;-62
2022/06/05 07:11:13;;;;;;;11.13;9.93;;;21.40;99.90;;;;;;5016635;28;20022;-61
2022/06/05 07:13:39;;;;;;;11.68;10.38;;;21.60;99.90;;;;;;5015822;28;20030;-62
2022/06/05 07:16:07;;;;;;;13.05;11.15;;;21.70;99.90;;;;;;5015873;28;20083;-62
2022/06/05 07:18:33;;;;;;;10.48;9.48;;;21.80;99.90;;;;;;5016837;28;20036;-63
2022/06/05 07:21:09;;;;;;;10.70;9.60;;;21.70;99.90;;;;;;5016543;28;20033;-63
2022/06/05 07:23:35;;;;;;;12.55;11.27;;;21.70;99.90;;;;;;5016851;28;20040;-63
2022/06/05 07:26:01;;;;;;;11.50;10.23;;;21.60;99.90;;;;;;5016446;28;20030;-64
2022/06/05 07:28:27;;;;;;;11.13;10.02;;;21.70;99.90;;;;;;5016582;28;20453;-64
2022/06/05 07:30:52;;;;;;;13.07;11.52;;;21.90;99.90;;;;;;5020015;28;20026;-61
2022/06/05 07:33:18;;;;;;;9.60;8.88;;;22.10;99.90;;;;;;5020008;28;20044;-59
2022/06/05 07:35:44;;;;;;;10.90;9.95;;;22.20;99.90;;;;;;5019919;28;20045;-59
2022/06/05 07:38:11;;;;;;;11.93;10.82;;;22.50;99.90;;;;;;5019123;28;20030;-62
2022/06/05 07:40:42;;;;;;;9.65;8.95;;;22.70;99.90;;;;;;5019954;28;20026;-62
2022/06/05 07:43:10;;;;;;;11.82;10.90;;;22.80;99.90;;;;;;5019796;28;20022;-62
2022/06/05 07:45:38;;;;;;;11.80;10.68;;;22.80;99.90;;;;;;5019884;28;20022;-63
2022/06/05 07:48:04;;;;;;;11.43;10.43;;;23.00;99.90;;;;;;5019778;28;20036;-63
2022/06/05 07:50:30;;;;;;;11.93;10.75;;;23.40;99.90;;;;;;5019763;28;20034;-64
2022/06/05 07:55:40;;;;;;;10.55;9.65;;;23.50;99.90;;;;;;5018904;28;20033;-64
2022/06/05 07:58:06;;;;;;;11.13;10.05;;;23.80;99.90;;;;;;5019595;28;20287;-64
2022/06/05 08:00:32;;;;;;;11.38;10.38;;;24.00;99.90;;;;;;5018694;28;20041;-64
2022/06/05 08:02:58;;;;;;;11.40;10.27;;;24.00;99.90;;;;;;5018854;28;20042;-64
2022/06/05 08:05:23;;;;;;;9.18;8.40;;;23.90;99.90;;;;;;5018724;28;20041;-64
2022/06/05 08:07:49;;;;;;;10.68;9.82;;;24.20;99.90;;;;;;5019385;28;20326;-63
2022/06/05 08:10:15;;;;;;;11.45;10.30;;;24.40;99.90;;;;;;5019346;28;20033;-64
2022/06/05 08:12:41;;;;;;;11.60;10.40;;;24.50;99.90;;;;;;5019260;28;20125;-62
2022/06/05 08:15:13;;;;;;;10.52;9.45;;;24.80;99.90;;;;;;5019221;28;20091;-63
2022/06/05 08:17:39;;;;;;;11.27;10.20;;;24.80;99.90;;;;;;5019149;28;20025;-64
2022/06/05 08:20:09;;;;;;;10.80;9.88;;;24.80;99.90;;;;;;5019075;28;20073;-63
2022/06/05 08:22:34;;;;;;;11.25;10.35;;;24.40;99.90;;;;;;5019026;28;20057;-63
2022/06/05 08:25:01;;;;;;;11.77;10.88;;;24.30;99.90;;;;;;5019064;28;20065;-62
2022/06/05 08:27:27;;;;;;;11.30;9.82;;;24.20;99.90;;;;;;5018270;28;20064;-62
2022/06/05 08:29:57;;;;;;;12.80;11.57;;;24.60;99.90;;;;;;5018968;28;20440;-63
2022/06/05 08:32:25;;;;;;;10.82;9.93;;;24.80;99.90;;;;;;5018921;28;20038;-62
2022/06/05 08:34:52;;;;;;;10.63;9.73;;;25.00;99.90;;;;;;5018016;28;20029;-63
2022/06/05 08:43:03;;;;;;;11.93;10.80;;;25.40;99.90;;;;;;5018662;28;20080;-63
2022/06/05 08:45:39;;;;;;;11.88;10.68;;;25.40;99.90;;;;;;5018538;28;20124;-64
2022/06/05 08:48:17;;;;;;;9.85;8.98;;;25.60;99.90;;;;;;5018622;28;20030;-64
2022/06/05 08:51:06;;;;;;;12.18;10.43;;;25.60;99.90;;;;;;5018582;28;20033;-63
2022/06/05 08:53:47;;;;;;;13.15;11.60;;;25.60;99.90;;;;;;5018409;28;20080;-63
2022/06/05 08:56:22;;;;;;;13.43;12.13;;;25.70;99.90;;;;;;5018075;28;20402;-62
2022/06/05 08:58:55;;;;;;;11.73;10.68;;;25.70;99.90;;;;;;5018664;28;20057;-62
2022/06/05 09:01:57;;;;;;;13.93;12.57;;;25.70;99.90;;;;;;5018575;28;20045;-62
2022/06/05 09:04:25;;;;;;;13.63;12.23;;;25.90;99.90;;;;;;5018527;28;20033;-64
2022/06/05 09:07:02;;;;;;;11.93;10.82;;;25.70;99.90;;;;;;5018310;28;20044;-62
2022/06/05 09:09:39;;;;;;;14.10;12.88;;;25.50;99.90;;;;;;5018343;28;20393;-63
2022/06/05 09:12:25;;;;;;;14.43;13.13;;;25.40;99.90;;;;;;5018188;28;20030;-64
2022/06/05 09:14:57;;;;;;;11.55;10.40;;;25.30;99.90;;;;;;5018086;28;20034;-63
2022/06/05 09:17:24;;;;;;;11.27;10.35;;;25.10;99.90;;;;;;5018125;28;20338;-63
2022/06/05 09:19:52;;;;;;;13.90;12.57;;;25.10;99.90;;;;;;5000922;28;20108;-63
2022/06/05 09:22:25;;;;;;;13.48;12.18;;;25.00;99.90;;;;;;5017904;28;20042;-63
2022/06/05 09:25:16;;;;;;;13.90;12.50;;;24.90;99.90;;;;;;5018033;28;20112;-63
2022/06/05 09:27:50;;;;;;;12.13;10.88;;;24.70;99.90;;;;;;5017902;28;20025;-63
2022/06/05 09:30:41;;;;;;;13.80;12.40;;;24.60;99.90;;;;;;5017874;28;20049;-63
2022/06/05 09:33:20;;;;;;;14.82;12.98;;;24.10;99.90;;;;;;5017777;28;20300;-62
2022/06/05 09:35:56;;;;;;;13.07;11.98;;;23.70;99.90;;;;;;5017025;28;20358;-63
2022/06/05 09:38:31;;;;;;;15.30;12.27;;;23.70;99.90;;;;;;5017735;28;20034;-63
2022/06/05 09:41:37;;;;;;;14.07;12.77;;;23.70;99.90;;;;;;5017454;28;20116;-63
2022/06/05 09:44:31;;;;;;;10.07;9.27;;;23.90;99.90;;;;;;5016710;28;20046;-62
2022/06/05 09:46:58;;;;;;;13.45;12.25;;;23.90;99.90;;;;;;5017809;28;20063;-63
2022/06/05 09:49:37;;;;;;;14.20;12.85;;;23.90;99.90;;;;;;5017566;28;20041;-62
2022/06/05 09:52:16;;;;;;;14.57;13.25;;;23.70;99.90;;;;;;5017355;28;20394;-62
2022/06/05 09:55:10;;;;;;;14.55;13.18;;;23.40;99.90;;;;;;5016543;28;20029;-63
2022/06/05 10:00:41;;;;;;;13.68;12.45;;;23.50;99.90;;;;;;5016757;28;20395;-63
2022/06/05 10:03:15;;;;;;;11.77;10.63;;;23.50;99.90;;;;;;5017290;28;20100;-62
2022/06/05 10:05:45;;;;;;;14.00;12.60;;;23.40;99.90;;;;;;5017187;28;20297;-62
2022/06/05 10:08:23;;;;;;;14.85;13.35;;;23.50;99.90;;;;;;5017160;28;20041;-62
2022/06/05 10:10:53;;;;;;;15.05;13.55;;;23.50;99.90;;;;;;5016519;28;20044;-63
2022/06/05 10:13:31;;;;;;;17.38;15.65;;;23.40;99.90;;;;;;5017057;28;20029;-63
2022/06/05 10:16:10;;;;;;;13.00;11.98;;;23.30;99.90;;;;;;5017303;28;20349;-63
2022/06/05 10:19:06;;;;;;;15.52;14.05;;;23.20;99.90;;;;;;5016078;28;20292;-63
2022/06/05 10:21:38;;;;;;;14.80;13.55;;;23.10;99.90;;;;;;5017054;28;20326;-62
2022/06/05 10:24:07;;;;;;;;;;;22.90;99.90;;;;;;5017147;28;20112;-63
2022/06/05 10:26:40;;;;;;;17.65;15.98;;;22.80;99.90;;;;;;5017074;28;19956;-60
2022/06/05 10:29:37;;;;;;;15.98;14.43;;;22.70;99.90;;;;;;5017046;28;20109;-61
2022/06/05 10:32:05;;;;;;;16.38;14.80;;;22.50;99.90;;;;;;4999910;28;20048;-61
2022/06/05 10:34:55;;;;;;;16.52;14.80;;;22.20;99.90;;;;;;5016483;28;20034;-61
2022/06/05 10:37:51;;;;;;;20.35;16.65;;;22.00;99.90;;;;;;5016912;28;20036;-61
2022/06/05 10:40:44;;;;;;;21.02;18.80;;;21.70;99.90;;;;;;5008838;28;20042;-57
2022/06/05 10:43:26;;;;;;;22.08;19.77;;;21.30;99.90;;;;;;5016941;28;20032;-58
2022/06/05 10:45:59;;;;;;;23.52;21.00;;;20.90;99.90;;;;;;5017501;28;20037;-59
2022/06/05 10:48:35;;;;;;;25.50;22.77;;;20.60;99.90;;;;;;5016356;28;20026;-59
2022/06/05 10:51:21;;;;;;;26.00;23.20;;;20.40;99.90;;;;;;5016152;28;20040;-62
2022/06/05 10:54:05;;;;;;;28.33;25.17;;;20.10;99.90;;;;;;5017186;28;20021;-58
2022/06/05 10:56:59;;;;;;;28.00;25.00;;;19.90;99.90;;;;;;5016557;28;20026;-58
2022/06/05 10:59:49;;;;;;;28.83;25.25;;;19.40;99.90;;;;;;5016708;28;20341;-58
2022/06/05 11:02:31;;;;;;;35.55;29.20;;;19.20;99.90;;;;;;5016580;28;20057;-56
2022/06/05 11:05:18;;;;;;;33.97;29.63;;;19.10;99.90;;;;;;5019925;28;20293;-56
2022/06/05 11:08:11;;;;;;;38.60;30.58;;;19.10;99.90;;;;;;5003447;28;20123;-55
2022/06/05 11:14:35;;;;;;;46.17;32.88;;;18.90;99.90;;;;;;5020248;28;20038;-56
2022/06/05 11:17:16;;;;;;;38.63;32.90;;;19.00;99.90;;;;;;5020302;28;20040;-57
2022/06/05 11:20:04;;;;;;;45.10;34.60;;;18.80;99.90;;;;;;5020246;28;20041;-57
2022/06/05 11:22:31;;;;;;;50.72;34.58;;;18.70;99.90;;;;;;5020228;28;20042;-57
2022/06/05 11:25:10;;;;;;;49.80;35.05;;;18.70;99.90;;;;;;5020685;28;20064;-57
2022/06/05 11:28:07;;;;;;;46.80;35.53;;;18.70;99.90;;;;;;5020062;28;20141;-56
2022/06/05 11:30:47;;;;;;;53.90;36.30;;;18.50;99.90;;;;;;4988048;28;20117;-56
2022/06/05 11:33:24;;;;;;;59.40;39.63;;;18.40;99.90;;;;;;5019921;28;20037;-58
2022/06/05 11:36:13;;;;;;;65.25;41.88;;;18.30;99.90;;;;;;5020461;28;20034;-58
2022/06/05 11:39:12;;;;;;;58.05;38.38;;;18.40;99.90;;;;;;5019916;28;20040;-58
2022/06/05 11:42:16;;;;;;;60.88;38.40;;;18.40;99.90;;;;;;5019809;28;20029;-60
2022/06/05 11:45:01;;;;;;;61.08;40.08;;;18.30;99.90;;;;;;5019717;28;20022;-58
2022/06/05 11:47:46;;;;;;;55.67;37.13;;;18.40;99.90;;;;;;5020039;28;20046;-59
2022/06/05 11:50:34;;;;;;;58.30;36.88;;;18.30;99.90;;;;;;5004723;28;20038;-59
2022/06/05 11:53:14;;;;;;;55.45;38.00;;;18.20;99.90;;;;;;5019608;28;20130;-59
2022/06/05 11:56:22;;;;;;;57.45;36.92;;;18.20;99.90;;;;;;5019809;28;20302;-56
2022/06/05 11:59:16;;;;;;;62.17;37.42;;;18.20;99.90;;;;;;5003795;28;20054;-58
2022/06/05 12:01:47;;;;;;;67.22;39.45;;;18.20;99.90;;;;;;5019271;28;20038;-57
2022/06/05 12:04:19;;;;;;;66.38;40.08;;;18.10;99.90;;;;;;5019410;28;20038;-57
2022/06/05 12:06:52;;;;;;;63.75;39.58;;;18.20;99.90;;;;;;5019677;28;20310;-58
2022/06/05 12:09:26;;;;;;;;;;;18.30;99.90;;;;;;5019459;28;20322;-59
2022/06/05 12:12:05;;;;;;;72.35;41.00;;;18.30;99.90;;;;;;5019320;28;19948;-62
2022/06/05 12:14:37;;;;;;;60.13;39.53;;;18.10;99.90;;;;;;5018467;28;20421;-60
2022/06/05 12:17:28;;;;;;;65.30;39.88;;;18.10;99.90;;;;;;5019076;28;20038;-62
2022/06/05 12:20:05;;;;;;;65.00;40.33;;;18.20;99.90;;;;;;5018357;28;20394;-57
2022/06/05 12:22:51;;;;;;;67.50;41.22;;;18.20;99.90;;;;;;5019289;28;20275;-58
2022/06/05 12:25:23;;;;;;;70.47;42.80;;;18.10;99.90;;;;;;5018198;28;20033;-59
2022/06/05 12:28:05;;;;;;;70.55;44.60;;;17.90;99.90;;;;;;5018924;28;20096;-59
2022/06/05 12:30:39;;;;;;;72.93;46.25;;;17.90;99.90;;;;;;5019124;28;20095;-60
2022/06/05 12:33:15;;;;;;;72.72;44.97;;;17.80;99.90;;;;;;5018959;28;20398;-60
2022/06/05 12:35:45;;;;;;;73.63;46.08;;;17.80;99.90;;;;;;5018987;28;20141;-59
2022/06/05 12:38:35;;;;;;;61.80;42.10;;;17.90;99.90;;;;;;5019061;28;20029;-58
2022/06/05 12:41:28;;;;;;;56.35;40.22;;;17.80;99.90;;;;;;5018793;28;20032;-59
2022/06/05 12:44:15;;;;;;;65.18;42.90;;;17.80;99.90;;;;;;5018698;28;20034;-58
2022/06/05 12:47:06;;;;;;;67.53;42.97;;;17.80;99.90;;;;;;5018616;28;20033;-64
2022/06/05 12:49:54;;;;;;;71.47;43.33;;;17.90;99.90;;;;;;4991232;28;20037;-62
2022/06/05 12:52:39;;;;;;;72.90;44.70;;;17.90;99.90;;;;;;5018563;28;20313;-60
2022/06/05 12:55:11;;;;;;;67.80;43.03;;;18.00;99.90;;;;;;5018404;28;20095;-62
2022/06/05 12:57:57;;;;;;;63.30;41.90;;;17.90;99.90;;;;;;5018485;28;20033;-59
2022/06/05 13:00:45;;;;;;;59.47;41.08;;;17.90;99.90;;;;;;5018172;28;20052;-58
2022/06/05 13:03:45;;;;;;;59.67;40.30;;;17.80;99.90;;;;;;5018385;28;20037;-60
2022/06/05 13:06:27;;;;;;;58.20;40.42;;;17.70;99.90;;;;;;5018814;28;20411;-59
2022/06/05 13:08:59;;;;;;;65.00;44.20;;;17.60;99.90;;;;;;5018771;28;20109;-58
2022/06/05 13:11:34;;;;;;;;;;;17.60;99.90;;;;;;5018825;28;20343;-61
2022/06/05 13:14:30;;;;;;;62.30;40.53;;;17.70;99.90;;;;;;5018031;28;20188;-59
2022/06/05 13:16:56;;;;;;;61.65;42.90;;;17.70;99.90;;;;;;5017261;28;20099;-60
2022/06/05 13:19:28;;;;;;;60.85;41.70;;;17.70;99.90;;;;;;5018075;28;20021;-62